Time;durP1;ratioP1;P1;durP2;ratioP2;P2;SDS_P1;SDS_P2;PMS_P1;PMS_P2;Temp;Humidity;BMP_temperature;BMP_pressure;BME280_temperature;BME280_humidity;BME280_pressure;Samples;Min_cycle;Max_cycle;Signal;HPM_P1;HPM_P2
2021/11/23 00:00:08;;;;;;;7.33;4.00;;;;;;;-1.04;88.16;101826.22;4986223;28;20047;-76
2021/11/23 00:02:39;;;;;;;11.53;5.30;;;;;;;-1.07;87.62;101826.03;4983701;28;20126;-76
2021/11/23 00:05:05;;;;;;;6.93;4.33;;;;;;;-1.07;87.26;101827.69;4986287;28;20042;-76
2021/11/23 00:07:31;;;;;;;6.23;4.10;;;;;;;-1.16;86.75;101820.28;4966771;28;20042;-76
2021/11/23 00:09:57;;;;;;;7.30;4.40;;;;;;;-1.19;87.07;101820.09;4985973;28;20097;-76
2021/11/23 00:12:23;;;;;;;7.17;3.40;;;;;;;-1.21;86.94;101817.38;4984843;28;20034;-76
2021/11/23 00:14:49;;;;;;;7.33;3.83;;;;;;;-1.22;87.94;101825.09;4951921;28;20031;-76
2021/11/23 00:17:15;;;;;;;9.43;4.47;;;;;;;-1.20;88.54;101823.50;4985155;28;20112;-76
2021/11/23 00:19:41;;;;;;;7.67;4.00;;;;;;;-1.23;88.23;101823.28;4967655;28;20037;-77
2021/11/23 00:22:06;;;;;;;8.33;3.83;;;;;;;-1.23;88.17;101824.19;4985660;28;20038;-76
2021/11/23 00:24:31;;;;;;;8.93;4.10;;;;;;;-1.23;88.28;101823.28;4983583;28;20395;-76
2021/11/23 00:26:57;;;;;;;8.13;3.73;;;;;;;-1.26;87.50;101817.91;4986248;28;20408;-76
2021/11/23 00:29:22;;;;;;;7.20;3.10;;;;;;;-1.26;86.96;101823.09;4966165;28;20509;-76
2021/11/23 00:31:48;;;;;;;7.93;3.33;;;;;;;-1.35;87.48;101823.41;4969280;28;20493;-76
2021/11/23 00:34:13;;;;;;;8.17;3.70;;;;;;;-1.30;87.84;101818.53;4976773;28;20153;-76
2021/11/23 00:36:38;;;;;;;6.10;3.50;;;;;;;-1.28;87.98;101825.59;4985791;28;20023;-76
2021/11/23 00:39:04;;;;;;;7.27;3.20;;;;;;;-1.19;88.02;101820.09;4983866;28;20400;-76
2021/11/23 00:41:30;;;;;;;6.70;2.83;;;;;;;-1.12;88.78;101817.97;4985269;28;20588;-76
2021/11/23 00:43:55;;;;;;;4.93;2.57;;;;;;;-1.06;88.34;101813.97;4982772;28;20030;-76
2021/11/23 00:46:20;;;;;;;6.13;2.97;;;;;;;-1.05;87.83;101806.25;4984351;28;20042;-76
2021/11/23 00:48:46;;;;;;;6.37;3.30;;;;;;;-1.01;88.04;101818.63;4967522;28;20117;-76
2021/11/23 00:51:11;;;;;;;5.03;2.80;;;;;;;-1.00;87.24;101823.00;4966516;28;20043;-76
2021/11/23 00:53:36;;;;;;;6.97;2.43;;;;;;;-0.99;87.30;101834.28;4985157;28;20042;-76
2021/11/23 00:56:04;;;;;;;4.47;2.47;;;;;;;-0.97;87.70;101827.47;4982848;28;20469;-76
2021/11/23 00:58:29;;;;;;;7.63;3.20;;;;;;;-0.99;87.88;101831.69;4985940;28;20038;-76
2021/11/23 01:00:55;;;;;;;5.97;2.87;;;;;;;-0.99;87.45;101830.00;4983762;28;20122;-76
2021/11/23 01:03:20;;;;;;;4.93;2.57;;;;;;;-1.02;87.68;101824.63;4982195;28;20066;-76
2021/11/23 01:05:46;;;;;;;6.27;3.10;;;;;;;-1.02;87.54;101829.81;4985305;28;20045;-76
2021/11/23 01:08:13;;;;;;;6.67;2.80;;;;;;;-1.07;87.46;101831.22;4983147;28;20121;-76
2021/11/23 01:10:39;;;;;;;5.43;2.77;;;;;;;-1.13;86.64;101821.38;4985090;28;20558;-76
2021/11/23 01:13:04;;;;;;;6.17;2.97;;;;;;;-1.15;87.23;101816.91;4983213;28;20046;-77
2021/11/23 01:15:30;;;;;;;6.47;2.83;;;;;;;-1.14;86.73;101819.56;4966947;28;20043;-76
2021/11/23 01:17:55;;;;;;;7.40;2.93;;;;;;;-1.15;87.31;101816.91;4983961;28;20150;-76
2021/11/23 01:20:22;;;;;;;5.43;2.47;;;;;;;-1.16;87.46;101815.09;4983502;28;20031;-76
2021/11/23 01:22:49;;;;;;;7.00;3.03;;;;;;;-1.14;87.52;101814.38;4984160;28;20041;-76
2021/11/23 01:25:15;;;;;;;5.97;2.70;;;;;;;-1.09;88.00;101814.66;4982802;28;20035;-76
2021/11/23 01:27:41;;;;;;;5.80;3.13;;;;;;;-1.10;87.51;101810.31;4984476;28;20077;-76
2021/11/23 01:30:09;;;;;;;6.30;2.80;;;;;;;-1.11;87.48;101809.38;4967792;28;20080;-76
2021/11/23 01:32:36;;;;;;;6.57;2.67;;;;;;;-1.15;87.80;101806.53;4981465;28;20045;-77
2021/11/23 01:35:02;;;;;;;6.93;3.00;;;;;;;-1.14;88.07;101810.91;4982193;28;20035;-76
2021/11/23 01:37:28;;;;;;;7.70;3.13;;;;;;;-1.10;87.46;101805.13;4985304;28;20121;-76
2021/11/23 01:39:53;;;;;;;7.37;3.20;;;;;;;-1.16;87.55;101804.72;4948752;28;20129;-76
2021/11/23 01:42:19;;;;;;;4.70;2.23;;;;;;;-1.15;87.68;101801.34;4945206;29;20174;-76
2021/11/23 01:44:45;;;;;;;6.03;3.00;;;;;;;-1.11;88.10;101804.19;4983967;28;20045;-76
2021/11/23 01:47:10;;;;;;;6.03;3.27;;;;;;;-1.05;88.22;101798.50;4982320;28;20395;-76
2021/11/23 01:49:35;;;;;;;8.47;3.60;;;;;;;-1.04;87.84;101802.91;4984098;28;20173;-76
2021/11/23 01:52:02;;;;;;;6.50;2.90;;;;;;;-1.01;88.00;101799.59;4963018;28;20066;-76
2021/11/23 01:54:28;;;;;;;6.97;2.50;;;;;;;-1.04;88.10;101799.41;4961199;28;20041;-76
2021/11/23 01:56:53;;;;;;;5.83;2.70;;;;;;;-0.99;88.31;101804.06;4971121;28;20026;-76
2021/11/23 01:59:19;;;;;;;5.57;2.57;;;;;;;-1.00;87.96;101797.06;4972908;28;20035;-76
2021/11/23 02:01:44;;;;;;;6.40;2.33;;;;;;;-1.00;87.67;101797.06;4972778;28;20113;-76
2021/11/23 02:04:12;;;;;;;5.73;3.10;;;;;;;-1.00;87.79;101797.06;4963392;28;20051;-76
2021/11/23 02:06:38;;;;;;;6.67;2.73;;;;;;;-0.99;87.55;101801.47;4981702;28;20034;-76
2021/11/23 02:09:04;;;;;;;4.63;2.37;;;;;;;-0.99;86.97;101796.28;4966183;28;20111;-76
2021/11/23 02:11:29;;;;;;;5.40;2.47;;;;;;;-0.94;87.21;101802.66;4948096;28;20031;-76
2021/11/23 02:13:55;;;;;;;11.33;3.30;;;;;;;-0.91;88.06;101800.25;4984390;28;20576;-76
2021/11/23 02:16:20;;;;;;;7.27;3.10;;;;;;;-0.86;87.39;101799.59;4981288;28;20123;-76
2021/11/23 02:18:46;;;;;;;5.60;3.00;;;;;;;-0.78;87.50;101801.00;4984072;28;20044;-76
2021/11/23 02:21:11;;;;;;;6.93;3.70;;;;;;;-0.71;87.50;101806.63;4981894;28;20101;-76
2021/11/23 02:23:38;;;;;;;5.90;3.53;;;;;;;-0.62;87.49;101797.63;4949910;28;20053;-76
2021/11/23 02:26:04;;;;;;;6.57;3.30;;;;;;;-0.50;87.65;101794.06;4964901;28;20145;-76
2021/11/23 02:28:29;;;;;;;9.10;3.70;;;;;;;-0.38;87.14;101795.56;4949846;28;20043;-76
2021/11/23 02:30:57;;;;;;;9.80;4.33;;;;;;;-0.32;86.87;101785.53;4989662;23;20045;-76
2021/11/23 02:33:25;;;;;;;6.90;3.70;;;;;;;-0.23;86.64;101791.25;4960546;28;20059;-76
2021/11/23 02:35:54;;;;;;;9.00;3.73;;;;;;;-0.15;87.26;101787.41;4963155;28;20045;-76
2021/11/23 02:38:22;;;;;;;8.30;5.03;;;;;;;-0.11;86.91;101784.16;4962849;28;20544;-76
2021/11/23 02:40:47;;;;;;;7.47;4.40;;;;;;;-0.09;86.67;101782.56;4963214;28;20398;-76
2021/11/23 02:43:13;;;;;;;7.07;4.13;;;;;;;-0.02;86.43;101789.88;4962405;28;20050;-76
2021/11/23 02:45:39;;;;;;;7.10;4.13;;;;;;;0.08;86.47;101780.94;4963670;28;20034;-76
2021/11/23 02:48:08;;;;;;;7.13;3.50;;;;;;;0.10;86.29;101784.47;4961887;28;20050;-76
2021/11/23 02:50:33;;;;;;;8.13;4.83;;;;;;;0.09;85.98;101789.59;4963997;28;20047;-76
2021/11/23 02:52:59;;;;;;;11.33;4.70;;;;;;;0.04;86.08;101794.53;4961437;28;20093;-76
2021/11/23 02:55:29;;;;;;;7.83;4.70;;;;;;;-0.03;86.21;101794.97;4963340;28;20035;-76
2021/11/23 02:57:55;;;;;;;9.60;5.07;;;;;;;-0.10;86.21;101798.94;4951680;28;20037;-76
2021/11/23 03:00:26;;;;;;;9.00;5.30;;;;;;;-0.13;86.16;101792.66;4961243;28;20050;-76
2021/11/23 03:02:53;;;;;;;7.50;4.37;;;;;;;-0.16;86.95;101788.19;4963530;28;20034;-76
2021/11/23 03:05:20;;;;;;;9.87;5.23;;;;;;;-0.14;87.38;101802.16;4961330;28;20478;-75
2021/11/23 03:07:47;;;;;;;11.70;5.47;;;;;;;-0.13;87.45;101798.78;4964200;28;20078;-76
2021/11/23 03:10:12;;;;;;;8.10;4.53;;;;;;;-0.10;87.20;101805.84;4961177;28;20041;-75
2021/11/23 03:12:39;;;;;;;11.37;5.10;;;;;;;-0.05;87.11;101805.28;4964178;28;20117;-76
2021/11/23 03:15:07;;;;;;;9.60;5.40;;;;;;;-0.01;87.12;101803.75;4960928;28;20082;-75
2021/11/23 03:17:33;;;;;;;9.87;5.10;;;;;;;0.01;86.92;101791.75;4961014;28;20039;-76
2021/11/23 03:20:01;;;;;;;10.90;5.50;;;;;;;0.18;86.96;101796.22;4964492;28;20490;-75
2021/11/23 03:22:26;;;;;;;8.73;5.30;;;;;;;0.32;86.34;101794.38;4960942;28;20126;-75
2021/11/23 03:24:51;;;;;;;9.50;5.13;;;;;;;0.40;86.89;101794.81;4963585;28;20138;-76
2021/11/23 03:27:17;;;;;;;7.70;4.90;;;;;;;0.47;86.44;101788.22;4961770;28;20066;-76
2021/11/23 03:29:43;;;;;;;7.47;4.87;;;;;;;0.55;85.89;101793.06;4962985;28;20403;-76
2021/11/23 03:32:11;;;;;;;9.60;5.73;;;;;;;0.65;85.67;101787.56;4967167;28;20105;-76
2021/11/23 03:34:40;;;;;;;9.87;6.37;;;;;;;0.77;85.92;101781.22;4968047;28;20068;-77
2021/11/23 03:37:11;;;;;;;9.83;6.40;;;;;;;0.87;85.67;101775.69;4949035;28;20039;-76
2021/11/23 03:39:37;;;;;;;11.23;7.82;;;;;;;0.90;85.52;101780.16;4947979;28;20035;-76
2021/11/23 03:42:04;;;;;;;9.27;5.10;;;;;;;0.97;85.44;101784.84;4946515;28;20580;-76
2021/11/23 03:44:29;;;;;;;11.15;6.43;;;;;;;1.00;85.18;101779.84;4964765;28;20105;-76
2021/11/23 03:46:55;;;;;;;10.43;6.13;;;;;;;1.01;84.57;101772.09;4965927;28;20034;-76
2021/11/23 03:49:20;;;;;;;10.82;5.55;;;;;;;1.02;84.97;101773.91;4962661;28;20047;-76
2021/11/23 03:51:46;;;;;;;10.82;5.63;;;;;;;1.02;84.50;101766.09;4962310;28;20041;-76
2021/11/23 03:54:11;;;;;;;10.05;5.50;;;;;;;0.96;84.60;101770.09;4966135;28;20118;-76
2021/11/23 03:56:39;;;;;;;9.35;5.78;;;;;;;0.87;84.12;101765.31;4971419;28;20086;-76
2021/11/23 03:59:04;;;;;;;10.07;5.90;;;;;;;0.80;84.27;101756.28;4970555;28;20058;-76
2021/11/23 04:01:29;;;;;;;10.17;5.47;;;;;;;0.73;84.96;101755.88;4965114;28;20456;-76
2021/11/23 04:03:55;;;;;;;9.60;5.80;;;;;;;0.70;85.31;101764.38;4969549;28;20042;-75
2021/11/23 04:06:20;;;;;;;8.07;5.40;;;;;;;0.72;84.96;101759.28;4966176;28;20031;-76
2021/11/23 04:08:45;;;;;;;10.37;6.97;;;;;;;0.69;85.49;101754.81;4966364;28;20117;-76
2021/11/23 04:11:11;;;;;;;11.77;6.70;;;;;;;0.68;85.16;101758.22;4943983;28;20042;-75
2021/11/23 04:13:36;;;;;;;10.03;6.60;;;;;;;0.64;85.08;101756.28;4962311;28;20042;-76
2021/11/23 04:16:02;;;;;;;12.17;7.20;;;;;;;0.62;85.52;101758.78;4962062;28;20035;-75
2021/11/23 04:18:28;;;;;;;10.03;6.77;;;;;;;0.60;85.92;101762.09;4962709;28;20046;-76
2021/11/23 04:20:53;;;;;;;12.67;7.10;;;;;;;0.57;85.97;101768.03;4966169;28;20038;-76
2021/11/23 04:23:18;;;;;;;13.40;7.63;;;;;;;0.54;85.92;101759.19;4964418;28;20591;-76
2021/11/23 04:25:44;;;;;;;14.23;8.47;;;;;;;0.56;85.94;101760.16;4966645;28;20397;-76
2021/11/23 04:28:09;;;;;;;14.20;7.73;;;;;;;0.54;85.90;101761.78;4963796;28;20086;-76
2021/11/23 04:30:34;;;;;;;13.33;7.33;;;;;;;0.50;86.44;101762.41;4969471;28;20038;-75
2021/11/23 04:33:00;;;;;;;13.03;7.07;;;;;;;0.52;86.29;101756.50;4970301;28;20027;-75
2021/11/23 04:35:25;;;;;;;12.80;7.30;;;;;;;0.53;86.08;101766.09;4964051;28;20528;-76
2021/11/23 04:37:50;;;;;;;16.90;8.20;;;;;;;0.52;85.87;101759.09;4965029;28;20446;-76
2021/11/23 04:40:18;;;;;;;14.43;7.87;;;;;;;0.50;85.97;101749.44;4964641;28;20526;-76
2021/11/23 04:42:44;;;;;;;15.57;6.90;;;;;;;0.50;85.57;101758.13;4965460;28;20054;-76
2021/11/23 04:45:13;;;;;;;13.30;7.20;;;;;;;0.52;85.86;101755.59;4964744;28;20027;-76
2021/11/23 04:47:38;;;;;;;12.67;7.00;;;;;;;0.51;85.89;101748.63;4966110;28;20113;-76
2021/11/23 04:50:11;;;;;;;18.63;6.80;;;;;;;0.52;85.59;101750.41;4968907;28;20086;-76
2021/11/23 04:52:36;;;;;;;13.98;6.93;;;;;;;0.47;85.66;101737.16;4965350;28;20085;-76
2021/11/23 04:55:02;;;;;;;14.75;7.30;;;;;;;0.53;86.07;101744.44;4963642;28;20109;-77
2021/11/23 04:57:27;;;;;;;15.00;7.73;;;;;;;0.53;85.71;101747.03;4964801;28;20525;-77
2021/11/23 04:59:53;;;;;;;12.47;6.53;;;;;;;0.53;85.28;101741.81;4952603;28;20450;-76
2021/11/23 05:02:19;;;;;;;9.67;6.27;;;;;;;0.50;85.61;101744.22;4967085;28;20043;-76
2021/11/23 05:04:45;;;;;;;11.50;6.37;;;;;;;0.51;85.73;101748.63;4973827;28;20030;-77
2021/11/23 05:07:11;;;;;;;15.30;7.90;;;;;;;0.51;85.67;101738.25;4966613;28;20090;-77
2021/11/23 05:09:36;;;;;;;13.83;8.10;;;;;;;0.52;85.49;101748.69;4965048;28;20031;-75
2021/11/23 05:12:02;;;;;;;15.13;7.47;;;;;;;0.55;85.23;101746.28;4973585;28;20517;-77
2021/11/23 05:14:27;;;;;;;10.40;6.80;;;;;;;0.59;85.44;101745.63;4961470;28;20458;-76
2021/11/23 05:16:53;;;;;;;9.30;5.40;;;;;;;0.68;85.09;101736.53;4965985;28;20041;-77
2021/11/23 05:19:18;;;;;;;9.87;6.10;;;;;;;0.78;85.51;101731.91;4968439;28;20043;-76
2021/11/23 05:21:44;;;;;;;10.13;6.07;;;;;;;0.92;85.07;101739.53;4969907;28;20109;-77
2021/11/23 05:24:10;;;;;;;10.52;6.55;;;;;;;1.05;84.61;101745.47;4948927;28;20489;-77
2021/11/23 05:26:36;;;;;;;10.13;6.25;;;;;;;1.17;84.41;101745.19;4968864;28;20031;-76
2021/11/23 05:29:01;;;;;;;9.13;5.78;;;;;;;1.31;83.40;101746.81;4969926;28;20041;-77
2021/11/23 05:31:27;;;;;;;10.45;6.35;;;;;;;1.38;82.38;101744.50;4966950;28;20453;-77
2021/11/23 05:33:52;;;;;;;8.20;5.68;;;;;;;1.35;82.53;101741.75;4963701;28;20045;-77
2021/11/23 05:36:17;;;;;;;10.25;6.57;;;;;;;1.30;82.42;101737.19;4962706;28;20118;-77
2021/11/23 05:38:43;;;;;;;10.60;6.60;;;;;;;1.41;82.68;101735.13;4973761;28;20037;-76
2021/11/23 05:41:08;;;;;;;11.15;6.63;;;;;;;1.49;82.32;101732.91;4967346;28;20054;-76
2021/11/23 05:43:33;;;;;;;13.13;7.65;;;;;;;1.53;82.11;101727.06;4967133;28;20047;-77
2021/11/23 05:45:59;;;;;;;11.85;5.95;;;;;;;1.60;82.10;101733.44;4966724;28;20037;-77
2021/11/23 05:48:24;;;;;;;10.18;6.32;;;;;;;1.64;81.23;101723.25;4966852;28;20039;-77
2021/11/23 05:50:50;;;;;;;10.35;6.53;;;;;;;1.68;82.05;101735.63;4964679;28;20118;-77
2021/11/23 05:53:16;;;;;;;10.00;6.00;;;;;;;1.73;81.52;101728.06;4968877;28;20035;-76
2021/11/23 05:55:41;;;;;;;8.52;5.60;;;;;;;1.81;81.01;101738.81;4972465;28;20027;-77
2021/11/23 05:58:08;;;;;;;10.23;6.30;;;;;;;1.80;80.86;101737.91;4969305;28;20031;-77
2021/11/23 06:00:34;;;;;;;10.38;6.78;;;;;;;1.88;81.18;101740.91;4963047;28;20059;-77
2021/11/23 06:02:59;;;;;;;9.48;6.75;;;;;;;1.90;80.81;101737.56;4966417;28;20078;-77
2021/11/23 06:05:25;;;;;;;14.40;8.40;;;;;;;1.95;80.34;101732.56;4967440;28;20031;-76
2021/11/23 06:07:50;;;;;;;15.68;8.65;;;;;;;2.04;80.05;101734.72;4966081;28;20512;-76
2021/11/23 06:10:16;;;;;;;10.50;6.80;;;;;;;2.07;80.37;101738.38;4960449;28;20414;-77
2021/11/23 06:12:42;;;;;;;9.98;6.53;;;;;;;2.08;80.13;101741.88;4964973;28;20039;-77
2021/11/23 06:15:10;;;;;;;9.68;6.28;;;;;;;2.14;79.99;101749.97;4961796;28;20112;-77
2021/11/23 06:17:36;;;;;;;11.57;6.40;;;;;;;2.09;79.69;101754.06;4965157;28;20414;-76
2021/11/23 06:20:04;;;;;;;14.10;5.75;;;;;;;2.03;79.39;101749.44;4961979;28;20038;-77
2021/11/23 06:22:30;;;;;;;25.30;16.85;;;;;;;2.00;79.88;101749.31;4954727;28;20039;-77
2021/11/23 06:24:56;;;;;;;9.27;6.10;;;;;;;2.04;80.08;101750.34;4944741;28;20047;-76
2021/11/23 06:27:21;;;;;;;10.30;6.47;;;;;;;2.04;80.09;101746.00;4964114;28;20039;-77
2021/11/23 06:29:46;;;;;;;13.57;6.95;;;;;;;2.15;80.24;101751.75;4962594;28;20049;-77
2021/11/23 06:32:12;;;;;;;11.98;6.80;;;;;;;2.19;79.74;101745.88;4963146;28;20046;-77
2021/11/23 06:34:37;;;;;;;9.07;5.45;;;;;;;2.13;80.03;101750.78;4963055;28;20039;-77
2021/11/23 06:37:02;;;;;;;10.55;5.63;;;;;;;2.24;80.10;101751.28;4962480;28;20062;-77
2021/11/23 06:39:28;;;;;;;13.38;6.82;;;;;;;2.25;80.26;101748.75;4964119;28;20037;-77
2021/11/23 06:41:53;;;;;;;10.32;6.38;;;;;;;2.38;80.26;101745.00;4961368;28;20039;-77
2021/11/23 06:44:19;;;;;;;11.73;7.05;;;;;;;2.41;80.44;101763.38;4947287;28;20097;-76
2021/11/23 06:46:44;;;;;;;10.55;6.10;;;;;;;2.47;79.61;101753.25;4961130;28;20031;-77
2021/11/23 06:49:09;;;;;;;8.82;6.70;;;;;;;2.54;79.26;101765.75;4964452;28;20062;-77
2021/11/23 06:51:35;;;;;;;10.40;6.55;;;;;;;2.57;79.13;101765.00;4966067;28;20043;-76
2021/11/23 06:54:00;;;;;;;9.27;5.60;;;;;;;2.58;79.12;101761.56;4965267;28;20035;-76
2021/11/23 06:56:26;;;;;;;8.52;5.82;;;;;;;2.58;79.34;101765.06;4965759;28;20097;-77
2021/11/23 06:58:52;;;;;;;9.63;5.93;;;;;;;2.67;79.62;101761.09;4962912;28;20065;-77
2021/11/23 07:01:18;;;;;;;10.68;6.13;;;;;;;2.69;78.42;101773.38;4968573;28;20034;-76
2021/11/23 07:03:43;;;;;;;11.98;6.00;;;;;;;2.70;78.74;101769.03;4965577;28;20375;-77
2021/11/23 07:06:09;;;;;;;10.15;6.63;;;;;;;2.54;79.27;101764.84;4969733;28;20058;-77
2021/11/23 07:08:35;;;;;;;13.50;6.50;;;;;;;2.46;79.19;101761.88;4966262;28;20054;-76
2021/11/23 07:11:01;;;;;;;12.90;7.18;;;;;;;2.38;79.85;101765.84;4970936;28;20038;-76
2021/11/23 07:13:26;;;;;;;10.40;5.70;;;;;;;2.40;79.99;101769.41;4968253;28;20041;-76
2021/11/23 07:15:54;;;;;;;9.52;5.85;;;;;;;2.44;79.55;101779.19;4965860;28;20037;-76
2021/11/23 07:18:20;;;;;;;12.23;5.60;;;;;;;2.52;78.96;101783.03;4962858;28;20050;-77
2021/11/23 07:20:46;;;;;;;11.43;5.65;;;;;;;2.62;78.91;101785.25;4969404;28;20027;-76
2021/11/23 07:23:12;;;;;;;8.00;5.07;;;;;;;2.67;78.70;101781.94;4968583;28;20043;-76
2021/11/23 07:25:38;;;;;;;10.02;5.68;;;;;;;2.76;78.49;101785.88;4968677;28;20513;-76
2021/11/23 07:28:04;;;;;;;8.85;5.18;;;;;;;2.78;78.18;101791.16;4968271;28;20035;-77
2021/11/23 07:30:30;;;;;;;12.00;6.30;;;;;;;2.82;77.99;101786.13;4968623;28;20035;-76
2021/11/23 07:32:56;;;;;;;11.55;6.20;;;;;;;2.95;77.77;101791.91;4964482;28;20089;-76
2021/11/23 07:35:21;;;;;;;8.68;5.50;;;;;;;2.99;77.75;101801.69;4962641;28;20163;-77
2021/11/23 07:37:47;;;;;;;10.93;5.63;;;;;;;3.03;77.57;101788.81;4962388;28;20082;-77
2021/11/23 07:40:13;;;;;;;9.52;5.43;;;;;;;3.11;77.92;101790.88;4961991;28;20110;-77
2021/11/23 07:42:39;;;;;;;9.57;4.97;;;;;;;3.16;76.72;101791.97;4966403;28;20038;-76
2021/11/23 07:45:05;;;;;;;9.23;5.50;;;;;;;3.14;77.11;101798.84;4961193;28;20152;-77
2021/11/23 07:47:31;;;;;;;10.45;6.25;;;;;;;3.07;77.21;101789.88;4963518;28;20127;-76
2021/11/23 07:49:56;;;;;;;10.73;6.40;;;;;;;3.28;76.75;101787.31;4960668;28;20196;-76
2021/11/23 07:52:21;;;;;;;11.20;6.45;;;;;;;3.36;76.97;101792.88;4964088;28;20038;-77
2021/11/23 07:54:47;;;;;;;11.48;6.43;;;;;;;3.46;76.55;101792.44;4963403;28;20031;-76
2021/11/23 07:57:12;;;;;;;10.38;5.63;;;;;;;3.55;75.75;101778.88;4967307;28;20050;-76
2021/11/23 07:59:37;;;;;;;8.75;5.20;;;;;;;3.55;75.81;101784.09;4964944;28;20035;-77
2021/11/23 08:02:03;;;;;;;10.75;6.28;;;;;;;3.54;76.38;101777.06;4966218;28;20113;-77
2021/11/23 08:04:28;;;;;;;8.88;5.72;;;;;;;3.54;76.06;101771.84;4947719;28;20122;-77
2021/11/23 08:06:53;;;;;;;9.48;5.55;;;;;;;3.54;75.94;101772.78;4968749;28;20778;-77
2021/11/23 08:09:19;;;;;;;9.07;5.63;;;;;;;3.44;75.75;101789.75;4966121;28;20070;-77
2021/11/23 08:11:44;;;;;;;9.13;5.57;;;;;;;3.45;76.38;101788.03;4963732;28;20035;-77
2021/11/23 08:14:10;;;;;;;10.65;5.22;;;;;;;3.36;77.04;101785.91;4966329;28;20513;-77
2021/11/23 08:16:35;;;;;;;10.10;5.85;;;;;;;3.43;77.36;101784.44;4964047;28;20065;-77
2021/11/23 08:19:02;;;;;;;9.77;5.97;;;;;;;3.53;77.20;101785.75;4968803;28;20039;-76
2021/11/23 08:21:29;;;;;;;10.77;6.28;;;;;;;3.47;77.79;101792.47;4960400;28;20045;-76
2021/11/23 08:23:55;;;;;;;9.73;5.78;;;;;;;3.44;78.15;101796.69;4966894;28;20410;-77
2021/11/23 08:26:23;;;;;;;8.88;5.82;;;;;;;3.54;78.49;101804.09;4965583;28;21449;-76
2021/11/23 08:28:48;;;;;;;10.70;5.75;;;;;;;3.56;78.61;101812.84;4971053;28;20031;-76
2021/11/23 08:31:14;;;;;;;10.30;6.57;;;;;;;3.54;78.35;101816.22;4966208;28;20522;-76
2021/11/23 08:33:40;;;;;;;11.05;6.55;;;;;;;3.58;78.71;101815.53;4964590;28;20043;-76
2021/11/23 08:38:33;;;;;;;13.60;6.43;;;;;;;3.54;80.05;101803.19;4955546;28;20039;-76
2021/11/23 08:40:58;;;;;;;11.13;6.63;;;;;;;3.58;80.67;101808.59;4956015;28;20061;-76
2021/11/23 08:43:24;;;;;;;12.60;7.55;;;;;;;3.56;80.97;101806.75;4956532;28;20041;-76
2021/11/23 08:45:49;;;;;;;12.93;7.13;;;;;;;3.49;80.98;101816.06;4956001;28;20039;-76
2021/11/23 08:48:15;;;;;;;12.95;7.32;;;;;;;3.57;81.51;101816.38;4955641;28;20038;-77
2021/11/23 08:50:40;;;;;;;11.00;6.63;;;;;;;3.51;81.87;101809.16;4959344;28;20493;-77
2021/11/23 08:53:09;;;;;;;14.27;7.72;;;;;;;3.60;81.56;101806.94;4962443;28;20061;-76
2021/11/23 08:55:39;;;;;;;11.63;7.30;;;;;;;3.61;82.41;101805.22;4958169;28;20035;-76
2021/11/23 08:58:05;;;;;;;12.68;6.82;;;;;;;3.62;82.74;101817.47;4958102;28;20090;-77
2021/11/23 09:00:31;;;;;;;11.50;6.03;;;;;;;3.56;82.78;101814.59;4960343;28;20053;-76
2021/11/23 09:02:59;;;;;;;11.00;5.85;;;;;;;3.56;83.58;101814.59;4937614;29;20047;-77
2021/11/23 09:05:27;;;;;;;13.10;7.50;;;;;;;3.56;83.35;101814.59;4954521;28;20069;-77
2021/11/23 09:07:53;;;;;;;13.32;6.55;;;;;;;3.63;83.63;101824.47;4954948;29;20038;-77
2021/11/23 09:10:22;;;;;;;13.50;7.15;;;;;;;3.76;83.66;101813.72;4936703;29;20035;-77
2021/11/23 09:12:51;;;;;;;13.27;7.20;;;;;;;3.84;83.40;101809.69;4949043;28;20035;-76
2021/11/23 09:15:17;;;;;;;12.23;7.10;;;;;;;3.92;81.88;101825.69;4958746;28;20430;-76
2021/11/23 09:17:43;;;;;;;13.93;6.90;;;;;;;3.82;82.00;101826.13;4954899;29;20113;-77
2021/11/23 09:20:09;;;;;;;11.50;7.13;;;;;;;3.68;82.99;101820.34;4951421;28;20470;-76
2021/11/23 09:22:36;;;;;;;10.88;8.00;;;;;;;3.71;82.99;101828.28;4955336;28;20410;-76
2021/11/23 09:25:02;;;;;;;14.98;10.45;;;;;;;3.83;85.96;101828.81;4954099;28;20117;-77
2021/11/23 09:27:28;;;;;;;13.48;8.85;;;;;;;3.97;84.73;101823.28;4956061;28;20125;-77
2021/11/23 09:29:53;;;;;;;10.68;6.97;;;;;;;4.08;83.51;101835.94;4959226;28;20125;-77
2021/11/23 09:32:19;;;;;;;12.27;6.63;;;;;;;4.10;82.72;101841.25;4953626;28;20079;-77
2021/11/23 09:34:44;;;;;;;11.60;5.85;;;;;;;4.00;82.94;101839.97;4952028;28;20569;-77
2021/11/23 09:37:09;;;;;;;10.60;7.03;;;;;;;3.92;83.54;101844.84;4958673;28;20035;-77
2021/11/23 09:39:35;;;;;;;16.17;7.28;;;;;;;3.85;83.83;101837.63;4959327;28;20073;-77
2021/11/23 09:42:00;;;;;;;13.63;6.55;;;;;;;3.93;83.86;101841.44;4958037;28;20188;-76
2021/11/23 09:44:26;;;;;;;10.50;6.40;;;;;;;3.89;84.05;101839.50;4956118;28;20129;-77
2021/11/23 09:46:52;;;;;;;12.00;6.55;;;;;;;3.88;84.04;101837.75;4939119;29;20039;-76
2021/11/23 09:49:18;;;;;;;13.10;7.05;;;;;;;4.01;84.46;101833.00;4959011;28;20139;-77
2021/11/23 09:51:44;;;;;;;11.40;6.88;;;;;;;4.21;83.81;101828.59;4951126;28;20026;-76
2021/11/23 09:54:11;;;;;;;12.18;6.70;;;;;;;4.27;83.59;101821.91;4954999;28;20039;-76
2021/11/23 09:56:39;;;;;;;12.55;6.00;;;;;;;4.39;83.21;101827.63;4955613;28;20034;-77
2021/11/23 09:59:05;;;;;;;11.02;6.60;;;;;;;4.44;82.35;101829.53;4955152;28;20046;-77
2021/11/23 10:01:45;;;;;;;14.20;7.97;;;;;;;4.50;82.48;101822.81;4954333;28;20035;-76
2021/11/23 10:04:11;;;;;;;13.38;6.82;;;;;;;4.60;81.91;101821.44;4951241;28;20035;-77
2021/11/23 10:07:11;;;;;;;11.10;6.93;;;;;;;4.64;81.65;101812.91;4956101;28;20043;-77
2021/11/23 10:09:44;;;;;;;15.77;6.43;;;;;;;4.68;82.19;101811.28;4953453;28;20055;-77
2021/11/23 10:12:21;;;;;;;;;;;;;;;4.66;81.63;101816.44;4956872;28;20438;-76
2021/11/23 10:15:06;;;;;;;13.38;6.65;;;;;;;4.74;82.24;101809.81;4956724;28;20288;-77
2021/11/23 10:17:32;;;;;;;9.82;5.70;;;;;;;4.63;81.88;101813.72;4950599;29;20049;-76
2021/11/23 10:19:57;;;;;;;15.32;7.25;;;;;;;4.55;83.04;101807.31;4936548;29;20133;-76
2021/11/23 10:22:37;;;;;;;14.02;7.55;;;;;;;4.56;82.85;101810.00;4953589;29;20406;-77
2021/11/23 10:25:06;;;;;;;12.27;7.03;;;;;;;4.54;83.14;101800.31;4936243;29;20129;-77
2021/11/23 10:27:32;;;;;;;11.07;6.63;;;;;;;4.68;82.96;101799.09;4952051;28;20046;-77
2021/11/23 10:30:00;;;;;;;13.98;6.47;;;;;;;4.67;82.77;101797.31;4953450;28;20039;-77
2021/11/23 10:32:26;;;;;;;12.10;6.85;;;;;;;4.70;82.93;101791.31;4952946;29;20074;-76
2021/11/23 10:34:51;;;;;;;11.90;6.47;;;;;;;4.75;83.01;101784.53;4953325;29;20046;-77
2021/11/23 10:37:31;;;;;;;12.27;6.13;;;;;;;4.83;82.57;101799.69;4953128;29;20047;-76
2021/11/23 10:40:10;;;;;;;11.63;6.65;;;;;;;4.90;82.22;101800.81;4936288;29;20078;-77
2021/11/23 10:42:36;;;;;;;12.88;6.40;;;;;;;4.97;82.50;101799.31;4930110;29;20512;-77
2021/11/23 10:45:07;;;;;;;14.25;6.93;;;;;;;5.09;82.13;101802.38;4953201;29;20114;-77
2021/11/23 10:47:42;;;;;;;12.15;5.95;;;;;;;5.14;81.92;101799.94;4925264;29;20058;-77
2021/11/23 10:50:10;;;;;;;12.40;6.70;;;;;;;5.12;82.18;101799.88;4953221;29;20593;-77
2021/11/23 10:52:39;;;;;;;11.30;6.47;;;;;;;5.14;82.00;101806.06;4936006;29;20046;-76
2021/11/23 10:55:08;;;;;;;14.25;6.72;;;;;;;5.05;82.23;101800.47;4935948;29;20082;-77
2021/11/23 10:57:42;;;;;;;17.40;7.13;;;;;;;5.10;82.19;101806.75;4950790;28;20074;-77
2021/11/23 11:00:10;;;;;;;11.85;7.53;;;;;;;5.27;82.28;101803.03;4941897;28;20043;-77
2021/11/23 11:02:40;;;;;;;14.93;6.50;;;;;;;5.31;81.51;101805.75;4955194;29;20031;-77
2021/11/23 11:05:16;;;;;;;12.52;7.05;;;;;;;5.44;80.65;101808.84;4941782;29;20027;-76
2021/11/23 11:07:44;;;;;;;11.88;7.30;;;;;;;5.42;81.77;101807.94;4949015;29;20131;-76
2021/11/23 11:10:10;;;;;;;11.70;7.03;;;;;;;5.49;81.49;101799.44;4949252;29;20498;-76
2021/11/23 11:12:36;;;;;;;12.18;7.07;;;;;;;5.64;80.84;101803.44;4953535;28;20174;-77
2021/11/23 11:15:08;;;;;;;12.90;6.97;;;;;;;5.57;80.14;101791.84;4953077;28;20401;-76
2021/11/23 11:17:39;;;;;;;13.70;7.28;;;;;;;5.56;81.50;101800.56;4926744;29;20054;-77
2021/11/23 11:20:07;;;;;;;13.05;7.38;;;;;;;5.61;80.70;101801.59;4953393;28;20215;-76
2021/11/23 11:22:32;;;;;;;13.07;6.78;;;;;;;5.64;80.48;101800.81;4952538;29;20398;-77
2021/11/23 11:27:31;;;;;;;13.23;7.28;;;;;;;5.56;80.66;101797.94;4950275;28;20038;-77